Time;durP1;ratioP1;P1;durP2;ratioP2;P2;SDS_P1;SDS_P2;PMS_P1;PMS_P2;Temp;Humidity;BMP_temperature;BMP_pressure;BME280_temperature;BME280_humidity;BME280_pressure;Samples;Min_cycle;Max_cycle;Signal;HPM_P1;HPM_P2
2022/01/27 00:00:38;;;;;;;25.57;13.97;;;;;;;;;;4725147;30;20971;-90
2022/01/27 00:07:05;;;;;;;21.53;12.87;;;;;;;;;;4736257;30;21193;-90
2022/01/27 00:10:42;;;;;;;21.90;12.83;;;;;;;;;;4727147;30;20986;-89
2022/01/27 00:13:48;;;;;;;24.90;13.17;;;;;;;;;;4715226;30;20565;-91
2022/01/27 00:16:58;;;;;;;21.23;13.00;;;;;;;;;;4715861;30;20629;-90
2022/01/27 00:20:02;;;;;;;29.37;17.20;;;;;;;;;;4688084;30;21119;-90
2022/01/27 00:23:07;;;;;;;23.90;15.07;;;;;;;;;;4687911;30;20566;-90
2022/01/27 00:26:12;;;;;;;24.33;13.60;;;;;;;;;;4697272;30;20642;-90
2022/01/27 00:29:16;;;;;;;25.23;14.30;;;;;;;;;;4687467;30;21150;-90
2022/01/27 00:32:21;;;;;;;23.37;13.83;;;;;;;;;;4688039;30;21128;-89
2022/01/27 00:35:25;;;;;;;22.13;12.80;;;;;;;;;;4706549;30;20660;-91
2022/01/27 00:38:30;;;;;;;22.30;12.70;;;;;;;;;;4720854;30;20614;-90
2022/01/27 00:41:35;;;;;;;21.87;13.33;;;;;;;;;;4694734;30;20650;-90
2022/01/27 00:44:39;;;;;;;22.13;12.97;;;;;;;;;;4708689;30;20649;-90
2022/01/27 00:47:44;;;;;;;22.60;13.80;;;;;;;;;;4703177;30;20700;-90
2022/01/27 00:50:54;;;;;;;21.50;13.33;;;;;;;;;;4697146;30;20625;-91
2022/01/27 00:54:09;;;;;;;24.50;14.33;;;;;;;;;;4700696;30;20987;-90
2022/01/27 00:57:33;;;;;;;21.50;13.20;;;;;;;;;;4705279;30;20586;-90
2022/01/27 01:00:44;;;;;;;21.00;12.77;;;;;;;;;;4711998;30;20626;-90
2022/01/27 01:03:50;;;;;;;21.57;13.03;;;;;;;;;;4687906;30;21303;-89
2022/01/27 01:06:55;;;;;;;24.10;14.00;;;;;;;;;;4707663;30;20648;-89
2022/01/27 01:20:03;;;;;;;24.37;13.77;;;;;;;;;;4706718;30;20618;-89
2022/01/27 01:30:22;;;;;;;20.03;12.10;;;;;;;;;;4717984;30;20911;-90
2022/01/27 01:33:33;;;;;;;21.13;12.53;;;;;;;;;;4708119;30;20561;-90
2022/01/27 01:36:46;;;;;;;22.60;13.53;;;;;;;;;;4711778;30;21011;-90
2022/01/27 01:39:51;;;;;;;23.50;13.40;;;;;;;;;;4694155;30;20626;-90
2022/01/27 01:42:55;;;;;;;24.57;14.43;;;;;;;;;;4693272;30;20563;-90
2022/01/27 01:46:00;;;;;;;23.23;13.27;;;;;;;;;;4718448;30;20664;-89
2022/01/27 01:49:05;;;;;;;19.90;12.33;;;;;;;;;;4714576;30;20624;-90
2022/01/27 01:52:09;;;;;;;25.33;13.60;;;;;;;;;;4699763;30;20633;-90
2022/01/27 01:55:14;;;;;;;20.43;12.27;;;;;;;;;;4700128;30;20649;-89
2022/01/27 01:58:18;;;;;;;22.27;12.40;;;;;;;;;;4690547;30;20571;-90
2022/01/27 02:01:23;;;;;;;20.03;12.23;;;;;;;;;;4696240;30;20649;-90
2022/01/27 02:04:27;;;;;;;20.53;12.07;;;;;;;;;;4703586;30;20649;-90
2022/01/27 02:07:54;;;;;;;23.10;12.30;;;;;;;;;;4726849;30;20652;-90
2022/01/27 02:20:56;;;;;;;19.97;12.03;;;;;;;;;;4722119;30;20708;-90
2022/01/27 02:24:01;;;;;;;22.97;13.23;;;;;;;;;;4696189;30;20920;-90
2022/01/27 02:27:05;;;;;;;24.07;13.80;;;;;;;;;;4691469;30;20566;-90
2022/01/27 02:30:09;;;;;;;24.10;13.50;;;;;;;;;;4695035;30;20575;-90
2022/01/27 02:33:13;;;;;;;21.90;13.03;;;;;;;;;;4689867;30;20556;-90
2022/01/27 02:36:17;;;;;;;25.83;13.67;;;;;;;;;;4704412;30;20648;-91
2022/01/27 02:39:23;;;;;;;29.20;14.83;;;;;;;;;;4710658;30;20642;-90
2022/01/27 02:42:33;;;;;;;20.13;12.87;;;;;;;;;;4697624;30;20672;-90
2022/01/27 02:45:48;;;;;;;22.43;13.37;;;;;;;;;;4707779;30;20673;-90
2022/01/27 02:48:53;;;;;;;24.07;13.47;;;;;;;;;;4708924;30;20570;-89
2022/01/27 02:51:57;;;;;;;25.83;13.97;;;;;;;;;;4708883;30;20614;-90
2022/01/27 02:55:01;;;;;;;23.63;13.17;;;;;;;;;;4689556;30;20653;-89
2022/01/27 02:58:05;;;;;;;24.80;13.53;;;;;;;;;;4707677;30;20618;-90
2022/01/27 03:01:10;;;;;;;22.93;12.50;;;;;;;;;;4705322;30;20613;-90
2022/01/27 03:04:15;;;;;;;26.20;13.60;;;;;;;;;;4716363;30;20652;-89
2022/01/27 03:07:19;;;;;;;27.80;14.57;;;;;;;;;;4706130;30;20558;-90
2022/01/27 03:10:28;;;;;;;24.90;13.63;;;;;;;;;;4716317;30;21138;-90
2022/01/27 03:13:33;;;;;;;28.10;14.20;;;;;;;;;;4706240;30;20575;-90
2022/01/27 03:16:37;;;;;;;23.77;13.87;;;;;;;;;;4715758;30;20642;-89
2022/01/27 03:19:41;;;;;;;27.70;15.17;;;;;;;;;;4715942;30;20620;-90
2022/01/27 03:22:45;;;;;;;24.03;14.57;;;;;;;;;;4705817;30;20625;-90
2022/01/27 03:25:49;;;;;;;26.37;14.13;;;;;;;;;;4715995;30;21216;-89
2022/01/27 03:28:54;;;;;;;24.73;14.70;;;;;;;;;;4715788;30;20562;-90
2022/01/27 03:31:58;;;;;;;29.77;15.77;;;;;;;;;;4724465;30;20623;-90
2022/01/27 03:35:03;;;;;;;23.40;14.37;;;;;;;;;;4728615;30;20659;-90
2022/01/27 03:38:07;;;;;;;26.10;14.93;;;;;;;;;;4716419;30;20931;-90
2022/01/27 03:41:12;;;;;;;28.27;14.97;;;;;;;;;;4705659;30;20919;-89
2022/01/27 03:44:18;;;;;;;27.07;15.37;;;;;;;;;;4715581;30;21228;-90
2022/01/27 03:47:22;;;;;;;27.87;14.63;;;;;;;;;;4715449;30;20624;-89
2022/01/27 03:50:27;;;;;;;28.20;15.03;;;;;;;;;;4715558;30;20574;-90
2022/01/27 03:53:31;;;;;;;26.30;14.70;;;;;;;;;;4715442;30;20562;-90
2022/01/27 03:56:35;;;;;;;30.50;16.40;;;;;;;;;;4705605;30;20565;-90
2022/01/27 03:59:39;;;;;;;25.57;15.27;;;;;;;;;;4712204;30;20614;-90
2022/01/27 04:02:56;;;;;;;27.83;15.83;;;;;;;;;;4688198;30;20618;-90
2022/01/27 04:06:08;;;;;;;29.67;15.67;;;;;;;;;;4687879;30;20653;-90
2022/01/27 04:09:12;;;;;;;31.30;16.13;;;;;;;;;;4688160;30;20975;-90
2022/01/27 04:12:16;;;;;;;33.73;17.20;;;;;;;;;;4688099;30;20571;-89
2022/01/27 04:15:21;;;;;;;31.90;15.83;;;;;;;;;;4693197;30;20658;-91
2022/01/27 04:18:25;;;;;;;28.70;16.37;;;;;;;;;;4700182;30;20570;-89
2022/01/27 04:21:30;;;;;;;32.10;16.80;;;;;;;;;;4703948;30;20617;-90
2022/01/27 04:24:35;;;;;;;35.33;17.97;;;;;;;;;;4714218;30;20654;-90
2022/01/27 04:27:44;;;;;;;37.63;17.63;;;;;;;;;;4704314;30;20641;-90
2022/01/27 04:30:49;;;;;;;34.53;17.30;;;;;;;;;;4716584;30;20614;-90
2022/01/27 04:33:54;;;;;;;33.93;17.93;;;;;;;;;;4706589;30;20583;-90
2022/01/27 04:36:59;;;;;;;31.53;17.63;;;;;;;;;;4706765;30;20646;-89
2022/01/27 04:40:10;;;;;;;31.20;17.10;;;;;;;;;;4697901;30;21193;-90
2022/01/27 04:46:42;;;;;;;36.27;17.07;;;;;;;;;;4707612;30;20575;-90
2022/01/27 04:49:47;;;;;;;30.03;16.63;;;;;;;;;;4698010;30;20614;-90
2022/01/27 04:52:53;;;;;;;33.07;17.17;;;;;;;;;;4715570;30;20559;-90
2022/01/27 04:55:59;;;;;;;32.00;17.27;;;;;;;;;;4687345;30;20654;-90
2022/01/27 04:59:10;;;;;;;36.37;18.60;;;;;;;;;;4687650;30;21130;-90
2022/01/27 05:02:27;;;;;;;34.60;18.67;;;;;;;;;;4687663;30;20622;-90
2022/01/27 05:05:37;;;;;;;38.10;19.23;;;;;;;;;;4704330;30;20688;-90
2022/01/27 05:08:42;;;;;;;37.17;19.23;;;;;;;;;;4714421;30;20573;-90
2022/01/27 05:11:56;;;;;;;33.37;18.67;;;;;;;;;;4714318;30;20569;-89
2022/01/27 05:15:00;;;;;;;35.13;18.73;;;;;;;;;;4754970;24;20687;-85
2022/01/27 05:18:04;;;;;;;37.37;18.97;;;;;;;;;;4740272;30;20559;-86
2022/01/27 05:21:08;;;;;;;33.13;18.20;;;;;;;;;;4747167;30;20614;-86
2022/01/27 05:24:12;;;;;;;33.33;19.23;;;;;;;;;;4722434;30;20557;-86
2022/01/27 05:27:17;;;;;;;33.43;18.77;;;;;;;;;;4715004;30;20573;-85
2022/01/27 05:30:21;;;;;;;36.80;17.63;;;;;;;;;;4723371;30;20677;-85
2022/01/27 05:33:25;;;;;;;35.77;18.87;;;;;;;;;;4732467;30;20909;-88
2022/01/27 05:36:30;;;;;;;36.10;18.80;;;;;;;;;;4721243;30;21254;-89
2022/01/27 05:39:34;;;;;;;35.13;19.03;;;;;;;;;;4731536;30;20999;-89
2022/01/27 05:42:38;;;;;;;37.33;18.60;;;;;;;;;;4720423;30;20613;-88
2022/01/27 05:45:43;;;;;;;35.20;19.53;;;;;;;;;;4716462;30;20669;-88
2022/01/27 05:48:47;;;;;;;34.90;19.43;;;;;;;;;;4712905;30;21191;-88
2022/01/27 05:51:51;;;;;;;41.90;20.27;;;;;;;;;;4714341;30;20565;-89
2022/01/27 05:54:56;;;;;;;39.10;20.03;;;;;;;;;;4707690;30;20664;-89
2022/01/27 05:58:00;;;;;;;38.07;20.33;;;;;;;;;;4734294;30;20620;-89
2022/01/27 06:01:04;;;;;;;40.63;20.73;;;;;;;;;;4716599;30;21180;-89
2022/01/27 06:04:08;;;;;;;39.67;20.67;;;;;;;;;;4707157;30;20621;-89
2022/01/27 06:07:13;;;;;;;41.40;20.37;;;;;;;;;;4734314;30;20620;-89
2022/01/27 06:10:18;;;;;;;43.10;23.13;;;;;;;;;;4733682;30;21005;-89
2022/01/27 06:13:23;;;;;;;39.87;20.77;;;;;;;;;;4734689;30;20616;-89
2022/01/27 06:16:27;;;;;;;44.20;22.43;;;;;;;;;;4730155;30;20680;-88
2022/01/27 06:19:31;;;;;;;43.50;21.17;;;;;;;;;;4707147;30;20614;-88
2022/01/27 06:22:35;;;;;;;41.23;21.37;;;;;;;;;;4716630;30;20613;-89
2022/01/27 06:25:39;;;;;;;41.60;21.60;;;;;;;;;;4716824;30;20659;-89
2022/01/27 06:28:44;;;;;;;42.57;21.70;;;;;;;;;;4716880;30;21105;-89
2022/01/27 06:31:48;;;;;;;43.47;22.53;;;;;;;;;;4713336;30;20612;-89
2022/01/27 06:34:52;;;;;;;43.53;21.97;;;;;;;;;;4743925;30;20631;-89
2022/01/27 06:37:57;;;;;;;42.27;21.07;;;;;;;;;;4738533;30;20605;-89
2022/01/27 06:41:01;;;;;;;40.83;21.77;;;;;;;;;;4706993;30;20931;-88
2022/01/27 06:44:05;;;;;;;41.47;22.53;;;;;;;;;;4728599;30;20649;-89
2022/01/27 06:47:09;;;;;;;44.27;22.23;;;;;;;;;;4712227;30;20612;-88
2022/01/27 06:50:13;;;;;;;49.87;26.23;;;;;;;;;;4735159;30;20603;-88
2022/01/27 06:53:18;;;;;;;71.10;38.17;;;;;;;;;;4715763;30;20609;-89
2022/01/27 06:56:22;;;;;;;45.83;27.30;;;;;;;;;;4706303;30;21232;-89
2022/01/27 06:59:26;;;;;;;43.53;23.03;;;;;;;;;;4727999;30;20640;-89
2022/01/27 07:02:30;;;;;;;48.97;23.13;;;;;;;;;;4709463;30;20652;-89
2022/01/27 07:05:34;;;;;;;46.73;22.10;;;;;;;;;;4736546;30;20672;-89
2022/01/27 07:08:39;;;;;;;45.30;23.83;;;;;;;;;;4727266;30;20646;-88
2022/01/27 07:11:43;;;;;;;43.47;22.80;;;;;;;;;;4706198;30;20557;-89
2022/01/27 07:14:47;;;;;;;45.90;23.73;;;;;;;;;;4716876;30;20663;-88
2022/01/27 07:17:52;;;;;;;43.53;21.57;;;;;;;;;;4715747;30;20605;-89
2022/01/27 07:20:56;;;;;;;43.47;21.50;;;;;;;;;;4716940;30;20625;-89
2022/01/27 07:24:01;;;;;;;47.37;22.53;;;;;;;;;;4724592;30;20656;-89
2022/01/27 07:27:05;;;;;;;44.10;23.60;;;;;;;;;;4715492;30;20714;-89
2022/01/27 07:30:09;;;;;;;38.43;21.20;;;;;;;;;;4717626;30;22328;-88
2022/01/27 07:33:13;;;;;;;46.97;23.40;;;;;;;;;;4721672;30;20637;-89
2022/01/27 07:36:19;;;;;;;47.80;22.93;;;;;;;;;;4729005;30;20683;-89
2022/01/27 07:39:23;;;;;;;40.67;21.03;;;;;;;;;;4723007;30;20557;-89
2022/01/27 07:42:27;;;;;;;48.67;22.90;;;;;;;;;;4732304;30;21221;-89
2022/01/27 07:45:31;;;;;;;48.23;26.00;;;;;;;;;;4722635;30;20643;-89
2022/01/27 07:48:35;;;;;;;105.10;50.13;;;;;;;;;;4728521;30;20604;-89
2022/01/27 07:51:39;;;;;;;48.00;23.60;;;;;;;;;;4721634;30;20593;-89
2022/01/27 07:54:44;;;;;;;37.90;19.83;;;;;;;;;;4722815;30;21219;-88
2022/01/27 07:57:48;;;;;;;45.90;25.37;;;;;;;;;;4714079;30;20613;-89
2022/01/27 08:00:53;;;;;;;43.13;23.13;;;;;;;;;;4712276;30;20970;-88
2022/01/27 08:03:57;;;;;;;89.53;44.47;;;;;;;;;;4705253;30;20613;-89
2022/01/27 08:07:02;;;;;;;48.10;24.27;;;;;;;;;;4706739;30;20657;-89
2022/01/27 08:10:07;;;;;;;69.83;35.87;;;;;;;;;;4718954;30;20638;-89
2022/01/27 08:13:11;;;;;;;60.13;31.63;;;;;;;;;;4707518;30;20605;-89
2022/01/27 08:16:15;;;;;;;46.97;26.37;;;;;;;;;;4715714;30;20669;-89
2022/01/27 08:19:19;;;;;;;47.93;25.37;;;;;;;;;;4719833;30;20639;-89
2022/01/27 08:22:23;;;;;;;49.93;25.60;;;;;;;;;;4719044;30;20610;-89
2022/01/27 08:25:28;;;;;;;54.73;30.03;;;;;;;;;;4724619;30;21018;-89
2022/01/27 08:28:39;;;;;;;51.83;27.57;;;;;;;;;;4704875;30;20601;-89
2022/01/27 08:31:59;;;;;;;40.53;21.93;;;;;;;;;;4714896;30;20562;-89
2022/01/27 08:35:05;;;;;;;125.53;60.13;;;;;;;;;;4714649;30;21212;-89
2022/01/27 08:38:09;;;;;;;85.07;45.67;;;;;;;;;;4714798;30;20592;-89
2022/01/27 08:41:13;;;;;;;52.60;27.17;;;;;;;;;;4704621;30;20597;-89
2022/01/27 08:44:18;;;;;;;41.10;23.37;;;;;;;;;;4724644;30;20630;-88
2022/01/27 08:47:22;;;;;;;42.07;23.33;;;;;;;;;;4704720;30;20986;-89
2022/01/27 08:50:27;;;;;;;45.77;22.13;;;;;;;;;;4704761;30;20620;-89
2022/01/27 08:53:34;;;;;;;59.73;28.47;;;;;;;;;;4724959;30;20558;-89
2022/01/27 08:56:39;;;;;;;40.60;23.53;;;;;;;;;;4704689;30;20637;-89
2022/01/27 08:59:42;;;;;;;39.73;23.03;;;;;;;;;;4704654;30;20563;-89
2022/01/27 09:02:47;;;;;;;41.13;21.57;;;;;;;;;;4704533;30;20916;-89
2022/01/27 09:05:51;;;;;;;35.33;20.07;;;;;;;;;;4704499;30;20644;-89
2022/01/27 09:08:57;;;;;;;37.87;20.40;;;;;;;;;;4704682;30;20562;-89
2022/01/27 09:12:01;;;;;;;34.20;19.73;;;;;;;;;;4704758;30;20565;-89
2022/01/27 09:15:05;;;;;;;32.37;18.87;;;;;;;;;;4704530;30;21037;-89
2022/01/27 09:18:10;;;;;;;35.03;21.27;;;;;;;;;;4716358;30;20591;-89
2022/01/27 09:21:20;;;;;;;33.37;18.30;;;;;;;;;;4704548;30;20566;-89
2022/01/27 09:24:36;;;;;;;33.13;18.80;;;;;;;;;;4714514;30;20617;-89
2022/01/27 09:27:42;;;;;;;35.60;19.33;;;;;;;;;;4704511;30;20570;-89
2022/01/27 09:30:46;;;;;;;31.17;16.77;;;;;;;;;;4724507;30;20624;-89
2022/01/27 09:33:50;;;;;;;32.40;18.27;;;;;;;;;;4707622;30;20563;-89
2022/01/27 09:36:55;;;;;;;29.67;17.47;;;;;;;;;;4707432;30;20583;-88
2022/01/27 09:39:59;;;;;;;35.60;18.23;;;;;;;;;;4717691;30;20581;-89
2022/01/27 09:43:05;;;;;;;29.63;17.03;;;;;;;;;;4717353;30;20612;-89
2022/01/27 09:46:11;;;;;;;31.70;18.07;;;;;;;;;;4717483;30;20640;-89
2022/01/27 09:49:18;;;;;;;29.90;18.50;;;;;;;;;;4717377;30;20573;-89
2022/01/27 09:52:22;;;;;;;28.73;17.30;;;;;;;;;;4707687;30;20557;-89
2022/01/27 09:55:26;;;;;;;31.20;17.73;;;;;;;;;;4717957;30;20638;-89
2022/01/27 09:58:30;;;;;;;31.20;17.37;;;;;;;;;;4707302;30;20565;-89
2022/01/27 10:01:36;;;;;;;29.27;16.87;;;;;;;;;;4707099;30;20702;-89
2022/01/27 10:04:42;;;;;;;26.97;15.10;;;;;;;;;;4707139;30;21042;-89
2022/01/27 10:07:48;;;;;;;26.37;14.67;;;;;;;;;;4707097;30;20557;-89
2022/01/27 10:10:54;;;;;;;29.97;16.07;;;;;;;;;;4707245;30;20561;-89
2022/01/27 10:13:58;;;;;;;25.60;14.03;;;;;;;;;;4707057;30;20581;-89
2022/01/27 10:17:08;;;;;;;28.13;15.33;;;;;;;;;;4730692;30;20689;-89
2022/01/27 10:20:17;;;;;;;25.93;14.47;;;;;;;;;;4734607;30;20934;-89
2022/01/27 10:23:24;;;;;;;25.63;14.87;;;;;;;;;;4734868;30;20565;-89
2022/01/27 10:26:41;;;;;;;25.50;15.33;;;;;;;;;;4734324;30;20644;-89
2022/01/27 10:30:35;;;;;;;24.33;14.93;;;;;;;;;;4723828;30;20620;-89
2022/01/27 10:33:12;;;;;;;27.57;15.83;;;;;;;;;;4734561;30;20562;-89
2022/01/27 10:36:40;;;;;;;33.13;18.83;;;;;;;;;;4733823;30;20640;-89
2022/01/27 10:39:47;;;;;;;32.30;19.63;;;;;;;;;;4724284;30;20586;-89
2022/01/27 10:43:10;;;;;;;37.27;22.20;;;;;;;;;;4726323;30;20561;-89
2022/01/27 10:46:23;;;;;;;32.73;18.43;;;;;;;;;;4726243;30;20629;-89
2022/01/27 10:49:35;;;;;;;27.77;16.13;;;;;;;;;;4736459;30;20569;-89
2022/01/27 10:52:50;;;;;;;28.70;16.83;;;;;;;;;;4726267;30;20561;-89
2022/01/27 10:56:05;;;;;;;30.60;17.07;;;;;;;;;;4724036;30;20242;-89
2022/01/27 10:59:13;;;;;;;28.00;16.60;;;;;;;;;;4723934;30;20199;-89
2022/01/27 11:02:17;;;;;;;27.97;16.03;;;;;;;;;;4723794;30;20199;-89
2022/01/27 11:05:23;;;;;;;30.13;15.80;;;;;;;;;;4723593;30;20248;-89
2022/01/27 11:08:27;;;;;;;30.63;17.07;;;;;;;;;;4723249;30;20210;-89
2022/01/27 11:11:33;;;;;;;32.13;17.57;;;;;;;;;;4733928;30;20197;-89
2022/01/27 11:48:22;;;;;;;28.30;16.07;;;;;;;;;;4735681;30;20202;-90
2022/01/27 11:51:26;;;;;;;29.17;16.63;;;;;;;;;;4723906;30;20916;-90
2022/01/27 11:54:30;;;;;;;31.10;17.43;;;;;;;;;;4723638;30;20612;-90
2022/01/27 11:57:43;;;;;;;29.43;17.10;;;;;;;;;;4725085;30;20575;-89
2022/01/27 12:01:02;;;;;;;28.73;16.30;;;;;;;;;;4724789;30;21086;-90
2022/01/27 12:04:13;;;;;;;33.27;17.13;;;;;;;;;;4724787;30;20624;-90
2022/01/27 13:23:45;;;;;;;26.50;13.23;;;;;;;;;;4747685;30;20657;-90
2022/01/27 13:28:25;;;;;;;27.93;13.60;;;;;;;;;;4715975;30;20744;-89
2022/01/27 13:32:22;;;;;;;28.87;14.10;;;;;;;;;;4716638;30;20616;-89
2022/01/27 13:37:20;;;;;;;26.43;12.10;;;;;;;;;;4750604;30;20660;-89
2022/01/27 13:46:39;;;;;;;24.27;11.90;;;;;;;;;;4731907;30;20784;-89
2022/01/27 13:50:37;;;;;;;23.43;12.77;;;;;;;;;;4709221;30;20637;-89
2022/01/27 13:54:03;;;;;;;22.90;11.60;;;;;;;;;;4699122;30;20590;-88
2022/01/27 13:57:35;;;;;;;24.33;12.60;;;;;;;;;;4726266;30;21020;-86
2022/01/27 14:00:51;;;;;;;23.17;11.73;;;;;;;;;;4727213;30;20679;-88
2022/01/27 14:03:55;;;;;;;22.23;12.23;;;;;;;;;;4717357;30;20566;-88
2022/01/27 14:06:59;;;;;;;20.77;11.07;;;;;;;;;;4717508;30;20642;-88
2022/01/27 14:14:45;;;;;;;19.60;10.40;;;;;;;;;;4717213;30;20557;-88
2022/01/27 14:18:02;;;;;;;17.37;8.93;;;;;;;;;;4708049;30;20683;-87
2022/01/27 14:21:07;;;;;;;14.07;7.47;;;;;;;;;;4717046;30;20551;-87
2022/01/27 14:24:19;;;;;;;12.50;7.50;;;;;;;;;;4726991;30;20897;-87
2022/01/27 14:27:37;;;;;;;12.80;6.60;;;;;;;;;;4706913;30;21111;-88
2022/01/27 14:30:41;;;;;;;12.23;7.40;;;;;;;;;;4726679;30;20629;-88
2022/01/27 14:33:46;;;;;;;12.83;7.13;;;;;;;;;;4706679;30;20558;-87
2022/01/27 14:36:50;;;;;;;14.13;7.50;;;;;;;;;;4726836;30;20638;-88
2022/01/27 14:39:57;;;;;;;14.07;6.90;;;;;;;;;;4716772;30;20892;-87
2022/01/27 14:43:02;;;;;;;12.17;6.63;;;;;;;;;;4716465;30;21173;-88
2022/01/27 14:46:14;;;;;;;24.10;16.03;;;;;;;;;;4726297;30;21253;-87
2022/01/27 14:49:18;;;;;;;31.67;19.97;;;;;;;;;;4706643;30;20623;-87
2022/01/27 14:52:27;;;;;;;20.40;13.57;;;;;;;;;;4726581;30;20565;-88
2022/01/27 14:55:32;;;;;;;11.43;7.67;;;;;;;;;;4716450;30;20637;-87
2022/01/27 14:58:36;;;;;;;11.60;7.00;;;;;;;;;;4716216;30;20613;-86
2022/01/27 15:01:40;;;;;;;11.37;6.43;;;;;;;;;;4726372;30;21109;-88
2022/01/27 15:04:44;;;;;;;14.67;11.07;;;;;;;;;;4726711;30;20613;-88
2022/01/27 15:07:50;;;;;;;10.67;6.30;;;;;;;;;;4716756;30;20569;-88
2022/01/27 15:10:54;;;;;;;9.17;5.53;;;;;;;;;;4726435;30;20575;-89
2022/01/27 15:18:48;;;;;;;8.70;6.40;;;;;;;;;;4716739;30;20554;-88
2022/01/27 15:25:40;;;;;;;38.43;24.77;;;;;;;;;;4727996;30;20688;-88
2022/01/27 15:28:44;;;;;;;16.03;10.53;;;;;;;;;;4726267;30;21115;-87
2022/01/27 15:32:00;;;;;;;11.83;7.63;;;;;;;;;;4726021;30;20573;-88
2022/01/27 15:35:33;;;;;;;23.83;16.13;;;;;;;;;;4732844;30;20645;-88
2022/01/27 15:39:18;;;;;;;16.13;11.13;;;;;;;;;;4727532;30;20632;-88
2022/01/27 15:50:32;;;;;;;9.90;5.80;;;;;;;;;;4733197;30;20641;-88
2022/01/27 15:53:37;;;;;;;12.13;6.57;;;;;;;;;;4715131;30;20598;-89
2022/01/27 15:56:42;;;;;;;10.27;5.97;;;;;;;;;;4720208;30;20661;-88
2022/01/27 15:59:49;;;;;;;9.77;5.90;;;;;;;;;;4705817;30;20558;-88
2022/01/27 16:02:54;;;;;;;10.63;6.37;;;;;;;;;;4705353;30;20562;-88
